Ixworth, United Kingdom
Current Conditions -  °F | °C
As of 4:00 PM on Friday 24 Oct 2014 (Local Time) from EGUL Reporting Station
Overcast Overcast  
Wind Chill: 61°   Ceiling: 2200
Heat Index: 61°   Visibility: 6mi
Dew Point: 61°   Wind: 8mph
Humidity: 100%   Direction: 210°SSW
Pressure: 29.87"   Gusts: NA
Location:  52.3°N, 0.83°E
Report Text: EGUL 241500Z AUTO 21007KT 9999 OVC022 16/16 A2987 RMK AO2 DZE1500
Loading
Personal Weather Stations






























Interactive Weather Map New forecast layout! Learn more

10-Day Weather Forecast

Advertisements
Track Severe Weather on mobile